sensor_id;sensor_type;location;lat;lon;timestamp;temperature;humidity
43320;DHT22;28914;48.722;9.332;2023-06-26T00:04:05;21.80;52.80
43320;DHT22;28914;48.722;9.332;2023-06-26T00:09:24;21.70;52.80
43320;DHT22;28914;48.722;9.332;2023-06-26T00:14:44;21.70;53.40
43320;DHT22;28914;48.722;9.332;2023-06-26T00:20:04;21.60;53.90
43320;DHT22;28914;48.722;9.332;2023-06-26T00:25:24;21.50;53.70
43320;DHT22;28914;48.722;9.332;2023-06-26T00:30:43;21.40;54.00
43320;DHT22;28914;48.722;9.332;2023-06-26T00:36:02;21.30;54.10
43320;DHT22;28914;48.722;9.332;2023-06-26T00:41:21;21.20;54.50
43320;DHT22;28914;48.722;9.332;2023-06-26T00:46:41;21.20;54.50
43320;DHT22;28914;48.722;9.332;2023-06-26T00:52:01;21.10;54.80
43320;DHT22;28914;48.722;9.332;2023-06-26T00:57:22;21.00;55.50
43320;DHT22;28914;48.722;9.332;2023-06-26T01:02:41;20.90;55.50
43320;DHT22;28914;48.722;9.332;2023-06-26T01:08:01;20.90;55.50
43320;DHT22;28914;48.722;9.332;2023-06-26T01:13:20;20.80;55.90
43320;DHT22;28914;48.722;9.332;2023-06-26T01:18:40;20.70;56.10
43320;DHT22;28914;48.722;9.332;2023-06-26T01:29:24;20.60;56.40
43320;DHT22;28914;48.722;9.332;2023-06-26T01:34:45;20.60;56.50
43320;DHT22;28914;48.722;9.332;2023-06-26T01:40:04;20.50;56.70
43320;DHT22;28914;48.722;9.332;2023-06-26T01:45:27;20.40;56.90
43320;DHT22;28914;48.722;9.332;2023-06-26T01:50:48;20.40;57.40
43320;DHT22;28914;48.722;9.332;2023-06-26T01:56:14;20.30;57.30
43320;DHT22;28914;48.722;9.332;2023-06-26T02:01:35;20.30;58.30
43320;DHT22;28914;48.722;9.332;2023-06-26T02:06:54;20.20;57.90
43320;DHT22;28914;48.722;9.332;2023-06-26T02:12:14;20.10;58.70
43320;DHT22;28914;48.722;9.332;2023-06-26T02:17:33;20.10;59.30
43320;DHT22;28914;48.722;9.332;2023-06-26T02:22:52;20.00;59.80
43320;DHT22;28914;48.722;9.332;2023-06-26T02:28:11;20.00;59.70
43320;DHT22;28914;48.722;9.332;2023-06-26T02:33:30;19.90;59.60
43320;DHT22;28914;48.722;9.332;2023-06-26T02:38:50;19.80;60.00
43320;DHT22;28914;48.722;9.332;2023-06-26T02:44:09;19.80;60.10
43320;DHT22;28914;48.722;9.332;2023-06-26T02:49:30;19.70;60.10
43320;DHT22;28914;48.722;9.332;2023-06-26T02:54:49;19.70;60.10
43320;DHT22;28914;48.722;9.332;2023-06-26T03:00:08;19.60;60.60
43320;DHT22;28914;48.722;9.332;2023-06-26T03:05:28;19.60;60.60
43320;DHT22;28914;48.722;9.332;2023-06-26T03:10:47;19.60;61.00
43320;DHT22;28914;48.722;9.332;2023-06-26T03:16:07;19.50;61.00
43320;DHT22;28914;48.722;9.332;2023-06-26T03:21:26;19.50;61.40
43320;DHT22;28914;48.722;9.332;2023-06-26T03:26:45;19.40;62.20
43320;DHT22;28914;48.722;9.332;2023-06-26T03:32:04;19.40;62.70
43320;DHT22;28914;48.722;9.332;2023-06-26T03:37:24;19.30;63.00
43320;DHT22;28914;48.722;9.332;2023-06-26T03:42:43;19.30;63.00
43320;DHT22;28914;48.722;9.332;2023-06-26T03:48:02;19.20;63.00
43320;DHT22;28914;48.722;9.332;2023-06-26T03:53:21;19.20;63.50
43320;DHT22;28914;48.722;9.332;2023-06-26T03:58:41;19.20;64.00
43320;DHT22;28914;48.722;9.332;2023-06-26T04:04:00;19.20;64.50
43320;DHT22;28914;48.722;9.332;2023-06-26T04:09:20;19.20;64.20
43320;DHT22;28914;48.722;9.332;2023-06-26T04:14:39;19.20;65.90
43320;DHT22;28914;48.722;9.332;2023-06-26T04:19:58;19.20;66.10
43320;DHT22;28914;48.722;9.332;2023-06-26T04:25:17;19.30;65.70
43320;DHT22;28914;48.722;9.332;2023-06-26T04:30:36;19.30;67.00
43320;DHT22;28914;48.722;9.332;2023-06-26T04:35:57;19.40;67.10
43320;DHT22;28914;48.722;9.332;2023-06-26T04:41:16;19.50;67.30
43320;DHT22;28914;48.722;9.332;2023-06-26T04:46:37;19.60;68.10
43320;DHT22;28914;48.722;9.332;2023-06-26T04:52:00;19.70;67.50
43320;DHT22;28914;48.722;9.332;2023-06-26T04:57:19;19.80;67.50
43320;DHT22;28914;48.722;9.332;2023-06-26T05:02:38;20.00;67.40
43320;DHT22;28914;48.722;9.332;2023-06-26T05:07:57;20.20;67.20
43320;DHT22;28914;48.722;9.332;2023-06-26T05:13:16;20.40;67.50
43320;DHT22;28914;48.722;9.332;2023-06-26T05:18:38;20.60;67.10
43320;DHT22;28914;48.722;9.332;2023-06-26T05:23:57;20.90;66.80
43320;DHT22;28914;48.722;9.332;2023-06-26T05:29:17;21.20;67.00
43320;DHT22;28914;48.722;9.332;2023-06-26T05:34:37;21.40;66.30
43320;DHT22;28914;48.722;9.332;2023-06-26T05:39:57;21.80;66.10
43320;DHT22;28914;48.722;9.332;2023-06-26T05:45:16;22.10;65.20
43320;DHT22;28914;48.722;9.332;2023-06-26T05:50:36;22.50;64.30
43320;DHT22;28914;48.722;9.332;2023-06-26T05:55:55;22.90;63.30
43320;DHT22;28914;48.722;9.332;2023-06-26T06:01:14;23.30;62.10
43320;DHT22;28914;48.722;9.332;2023-06-26T06:06:34;23.60;61.30
43320;DHT22;28914;48.722;9.332;2023-06-26T06:11:53;23.90;60.80
43320;DHT22;28914;48.722;9.332;2023-06-26T06:17:12;24.30;59.80
43320;DHT22;28914;48.722;9.332;2023-06-26T06:22:32;24.60;59.40
43320;DHT22;28914;48.722;9.332;2023-06-26T06:27:51;24.90;58.80
43320;DHT22;28914;48.722;9.332;2023-06-26T06:33:10;25.30;58.50
43320;DHT22;28914;48.722;9.332;2023-06-26T06:38:29;25.60;58.20
43320;DHT22;28914;48.722;9.332;2023-06-26T06:43:48;26.00;57.80
43320;DHT22;28914;48.722;9.332;2023-06-26T06:49:08;26.50;57.40
43320;DHT22;28914;48.722;9.332;2023-06-26T06:54:28;26.90;56.60
43320;DHT22;28914;48.722;9.332;2023-06-26T06:59:48;27.30;55.10
43320;DHT22;28914;48.722;9.332;2023-06-26T07:05:07;27.70;55.40
43320;DHT22;28914;48.722;9.332;2023-06-26T07:10:27;28.20;53.90
43320;DHT22;28914;48.722;9.332;2023-06-26T07:15:46;28.70;54.20
43320;DHT22;28914;48.722;9.332;2023-06-26T07:21:06;29.30;54.00
43320;DHT22;28914;48.722;9.332;2023-06-26T07:26:26;30.00;54.30
43320;DHT22;28914;48.722;9.332;2023-06-26T07:31:45;30.70;51.30
43320;DHT22;28914;48.722;9.332;2023-06-26T07:37:04;31.40;49.70
43320;DHT22;28914;48.722;9.332;2023-06-26T07:42:23;32.00;49.60
43320;DHT22;28914;48.722;9.332;2023-06-26T07:47:43;32.60;47.70
43320;DHT22;28914;48.722;9.332;2023-06-26T07:53:03;33.30;46.80
43320;DHT22;28914;48.722;9.332;2023-06-26T07:58:24;34.10;45.50
43320;DHT22;28914;48.722;9.332;2023-06-26T08:03:44;34.90;43.30
43320;DHT22;28914;48.722;9.332;2023-06-26T08:09:03;35.80;44.90
43320;DHT22;28914;48.722;9.332;2023-06-26T08:14:24;37.00;42.40
43320;DHT22;28914;48.722;9.332;2023-06-26T08:19:43;38.10;41.20
43320;DHT22;28914;48.722;9.332;2023-06-26T08:25:03;39.40;41.80
43320;DHT22;28914;48.722;9.332;2023-06-26T08:30:23;40.90;38.00
43320;DHT22;28914;48.722;9.332;2023-06-26T08:35:46;42.20;38.10
43320;DHT22;28914;48.722;9.332;2023-06-26T08:41:07;43.40;33.50
43320;DHT22;28914;48.722;9.332;2023-06-26T08:46:27;44.30;32.00
43320;DHT22;28914;48.722;9.332;2023-06-26T08:51:52;45.20;33.50
43320;DHT22;28914;48.722;9.332;2023-06-26T08:57:18;46.40;32.40
43320;DHT22;28914;48.722;9.332;2023-06-26T09:02:38;47.60;30.80
43320;DHT22;28914;48.722;9.332;2023-06-26T09:07:57;48.60;27.90
43320;DHT22;28914;48.722;9.332;2023-06-26T09:13:18;49.40;29.10
43320;DHT22;28914;48.722;9.332;2023-06-26T09:18:37;50.40;28.10
43320;DHT22;28914;48.722;9.332;2023-06-26T09:23:59;51.20;28.10
43320;DHT22;28914;48.722;9.332;2023-06-26T09:29:19;52.00;28.00
43320;DHT22;28914;48.722;9.332;2023-06-26T09:34:41;52.70;26.20
43320;DHT22;28914;48.722;9.332;2023-06-26T09:40:02;53.30;25.60
43320;DHT22;28914;48.722;9.332;2023-06-26T09:45:21;53.90;25.00
43320;DHT22;28914;48.722;9.332;2023-06-26T09:50:42;54.30;25.00
43320;DHT22;28914;48.722;9.332;2023-06-26T09:56:06;54.50;24.20
43320;DHT22;28914;48.722;9.332;2023-06-26T10:01:26;54.70;23.90
43320;DHT22;28914;48.722;9.332;2023-06-26T10:06:46;54.80;23.20
43320;DHT22;28914;48.722;9.332;2023-06-26T10:12:15;54.30;23.40
43320;DHT22;28914;48.722;9.332;2023-06-26T10:17:37;53.50;23.50
43320;DHT22;28914;48.722;9.332;2023-06-26T10:23:00;52.80;23.50
43320;DHT22;28914;48.722;9.332;2023-06-26T10:28:21;51.50;23.50
43320;DHT22;28914;48.722;9.332;2023-06-26T10:33:41;49.80;23.90
43320;DHT22;28914;48.722;9.332;2023-06-26T10:39:05;47.80;24.60
43320;DHT22;28914;48.722;9.332;2023-06-26T10:44:24;46.30;25.70
43320;DHT22;28914;48.722;9.332;2023-06-26T10:49:46;45.40;26.20
43320;DHT22;28914;48.722;9.332;2023-06-26T10:55:08;44.40;26.70
43320;DHT22;28914;48.722;9.332;2023-06-26T11:00:27;43.30;27.60
43320;DHT22;28914;48.722;9.332;2023-06-26T11:06:17;42.40;28.40
43320;DHT22;28914;48.722;9.332;2023-06-26T11:17:18;40.50;29.90
43320;DHT22;28914;48.722;9.332;2023-06-26T11:22:39;39.80;30.60
43320;DHT22;28914;48.722;9.332;2023-06-26T11:27:58;39.20;31.50
43320;DHT22;28914;48.722;9.332;2023-06-26T11:33:17;39.00;31.80
43320;DHT22;28914;48.722;9.332;2023-06-26T11:38:37;39.00;32.00
43320;DHT22;28914;48.722;9.332;2023-06-26T11:44:07;38.90;31.80
43320;DHT22;28914;48.722;9.332;2023-06-26T11:49:28;38.90;32.40
43320;DHT22;28914;48.722;9.332;2023-06-26T11:54:47;38.90;32.70
43320;DHT22;28914;48.722;9.332;2023-06-26T12:00:14;39.10;33.10
43320;DHT22;28914;48.722;9.332;2023-06-26T12:05:33;39.30;32.50
43320;DHT22;28914;48.722;9.332;2023-06-26T12:10:52;39.30;32.40
43320;DHT22;28914;48.722;9.332;2023-06-26T12:16:12;39.20;32.70
43320;DHT22;28914;48.722;9.332;2023-06-26T12:26:56;39.00;33.50
43320;DHT22;28914;48.722;9.332;2023-06-26T12:32:16;38.90;33.50
43320;DHT22;28914;48.722;9.332;2023-06-26T12:37:38;38.80;34.20
43320;DHT22;28914;48.722;9.332;2023-06-26T12:42:59;38.60;34.40
43320;DHT22;28914;48.722;9.332;2023-06-26T12:48:18;38.20;35.20
43320;DHT22;28914;48.722;9.332;2023-06-26T12:53:39;37.90;35.50
43320;DHT22;28914;48.722;9.332;2023-06-26T12:58:59;37.50;35.80
43320;DHT22;28914;48.722;9.332;2023-06-26T13:04:18;37.20;36.50
43320;DHT22;28914;48.722;9.332;2023-06-26T13:09:37;37.10;37.10
43320;DHT22;28914;48.722;9.332;2023-06-26T13:14:57;37.10;37.10
43320;DHT22;28914;48.722;9.332;2023-06-26T13:20:16;37.10;37.40
43320;DHT22;28914;48.722;9.332;2023-06-26T13:25:35;37.10;37.40
43320;DHT22;28914;48.722;9.332;2023-06-26T13:30:54;37.10;37.40
43320;DHT22;28914;48.722;9.332;2023-06-26T13:36:14;37.00;37.20
43320;DHT22;28914;48.722;9.332;2023-06-26T13:41:33;36.90;37.60
43320;DHT22;28914;48.722;9.332;2023-06-26T13:46:52;36.90;38.20
43320;DHT22;28914;48.722;9.332;2023-06-26T13:52:12;36.90;37.60
43320;DHT22;28914;48.722;9.332;2023-06-26T13:57:31;36.80;37.30
43320;DHT22;28914;48.722;9.332;2023-06-26T14:02:51;36.70;37.20
43320;DHT22;28914;48.722;9.332;2023-06-26T14:08:11;36.50;37.10
43320;DHT22;28914;48.722;9.332;2023-06-26T14:13:30;36.40;37.40
43320;DHT22;28914;48.722;9.332;2023-06-26T14:18:49;36.20;37.10
43320;DHT22;28914;48.722;9.332;2023-06-26T14:24:08;36.00;37.00
43320;DHT22;28914;48.722;9.332;2023-06-26T14:29:28;35.80;36.70
43320;DHT22;28914;48.722;9.332;2023-06-26T14:34:47;35.70;36.40
43320;DHT22;28914;48.722;9.332;2023-06-26T14:40:07;35.60;36.30
43320;DHT22;28914;48.722;9.332;2023-06-26T14:45:26;35.60;36.20
43320;DHT22;28914;48.722;9.332;2023-06-26T14:50:46;35.50;36.10
43320;DHT22;28914;48.722;9.332;2023-06-26T14:56:05;35.40;35.70
43320;DHT22;28914;48.722;9.332;2023-06-26T15:01:24;35.40;36.40
43320;DHT22;28914;48.722;9.332;2023-06-26T15:06:43;35.30;35.80
43320;DHT22;28914;48.722;9.332;2023-06-26T15:12:04;35.40;35.90
43320;DHT22;28914;48.722;9.332;2023-06-26T15:17:23;35.30;36.00
43320;DHT22;28914;48.722;9.332;2023-06-26T15:22:43;35.10;36.00
43320;DHT22;28914;48.722;9.332;2023-06-26T15:28:03;34.90;36.00
43320;DHT22;28914;48.722;9.332;2023-06-26T15:33:22;34.80;36.50
43320;DHT22;28914;48.722;9.332;2023-06-26T15:38:42;34.50;36.60
43320;DHT22;28914;48.722;9.332;2023-06-26T15:44:01;34.40;36.70
43320;DHT22;28914;48.722;9.332;2023-06-26T15:49:20;34.10;37.10
43320;DHT22;28914;48.722;9.332;2023-06-26T15:54:40;33.90;37.30
43320;DHT22;28914;48.722;9.332;2023-06-26T15:59:59;33.60;37.40
43320;DHT22;28914;48.722;9.332;2023-06-26T16:05:19;33.40;37.70
43320;DHT22;28914;48.722;9.332;2023-06-26T16:10:38;33.20;37.60
43320;DHT22;28914;48.722;9.332;2023-06-26T16:15:58;32.90;37.80
43320;DHT22;28914;48.722;9.332;2023-06-26T16:21:17;32.70;38.10
43320;DHT22;28914;48.722;9.332;2023-06-26T16:26:36;32.50;38.40
43320;DHT22;28914;48.722;9.332;2023-06-26T16:31:55;32.20;38.60
43320;DHT22;28914;48.722;9.332;2023-06-26T16:37:14;32.00;39.30
43320;DHT22;28914;48.722;9.332;2023-06-26T16:42:34;31.80;40.20
43320;DHT22;28914;48.722;9.332;2023-06-26T16:47:53;31.70;39.80
43320;DHT22;28914;48.722;9.332;2023-06-26T16:53:12;31.50;39.80
43320;DHT22;28914;48.722;9.332;2023-06-26T16:58:31;31.40;39.60
43320;DHT22;28914;48.722;9.332;2023-06-26T17:03:50;31.20;39.60
43320;DHT22;28914;48.722;9.332;2023-06-26T17:09:10;31.10;39.50
43320;DHT22;28914;48.722;9.332;2023-06-26T17:14:29;30.90;39.20
43320;DHT22;28914;48.722;9.332;2023-06-26T17:19:49;30.80;39.10
43320;DHT22;28914;48.722;9.332;2023-06-26T17:25:08;30.70;38.50
43320;DHT22;28914;48.722;9.332;2023-06-26T17:30:30;30.50;37.50
43320;DHT22;28914;48.722;9.332;2023-06-26T17:35:51;30.40;37.20
43320;DHT22;28914;48.722;9.332;2023-06-26T17:41:10;30.30;36.90
43320;DHT22;28914;48.722;9.332;2023-06-26T17:46:29;30.20;36.60
43320;DHT22;28914;48.722;9.332;2023-06-26T17:51:49;30.10;36.70
43320;DHT22;28914;48.722;9.332;2023-06-26T17:57:08;30.00;36.40
43320;DHT22;28914;48.722;9.332;2023-06-26T18:02:27;29.90;36.10
43320;DHT22;28914;48.722;9.332;2023-06-26T18:07:46;29.80;36.10
43320;DHT22;28914;48.722;9.332;2023-06-26T18:13:06;29.70;36.20
43320;DHT22;28914;48.722;9.332;2023-06-26T18:18:25;29.50;35.90
43320;DHT22;28914;48.722;9.332;2023-06-26T18:23:44;29.30;36.00
43320;DHT22;28914;48.722;9.332;2023-06-26T18:29:06;29.10;35.90
43320;DHT22;28914;48.722;9.332;2023-06-26T18:34:25;28.90;36.00
43320;DHT22;28914;48.722;9.332;2023-06-26T18:39:44;28.80;35.80
43320;DHT22;28914;48.722;9.332;2023-06-26T18:45:04;28.60;36.00
43320;DHT22;28914;48.722;9.332;2023-06-26T18:50:24;28.40;36.00
43320;DHT22;28914;48.722;9.332;2023-06-26T18:55:46;28.30;36.30
43320;DHT22;28914;48.722;9.332;2023-06-26T19:01:05;28.10;36.40
43320;DHT22;28914;48.722;9.332;2023-06-26T19:06:25;27.90;36.50
43320;DHT22;28914;48.722;9.332;2023-06-26T19:11:44;27.70;36.70
43320;DHT22;28914;48.722;9.332;2023-06-26T19:17:04;27.50;36.80
43320;DHT22;28914;48.722;9.332;2023-06-26T19:22:25;27.30;37.10
43320;DHT22;28914;48.722;9.332;2023-06-26T19:27:46;27.20;37.30
43320;DHT22;28914;48.722;9.332;2023-06-26T19:33:06;27.00;37.60
43320;DHT22;28914;48.722;9.332;2023-06-26T19:38:26;26.90;38.60
43320;DHT22;28914;48.722;9.332;2023-06-26T19:43:46;26.70;38.30
43320;DHT22;28914;48.722;9.332;2023-06-26T19:49:05;26.50;38.60
43320;DHT22;28914;48.722;9.332;2023-06-26T19:54:24;26.30;38.80
43320;DHT22;28914;48.722;9.332;2023-06-26T19:59:43;26.10;39.00
43320;DHT22;28914;48.722;9.332;2023-06-26T20:05:03;26.00;39.10
43320;DHT22;28914;48.722;9.332;2023-06-26T20:10:22;25.80;39.30
43320;DHT22;28914;48.722;9.332;2023-06-26T20:15:41;25.70;39.60
43320;DHT22;28914;48.722;9.332;2023-06-26T20:21:01;25.60;39.70
43320;DHT22;28914;48.722;9.332;2023-06-26T20:26:20;25.40;39.80
43320;DHT22;28914;48.722;9.332;2023-06-26T20:31:39;25.30;40.10
43320;DHT22;28914;48.722;9.332;2023-06-26T20:36:58;25.20;40.10
43320;DHT22;28914;48.722;9.332;2023-06-26T20:42:18;25.10;40.20
43320;DHT22;28914;48.722;9.332;2023-06-26T20:47:38;25.00;40.30
43320;DHT22;28914;48.722;9.332;2023-06-26T20:53:01;24.90;40.80
43320;DHT22;28914;48.722;9.332;2023-06-26T20:58:20;24.80;41.10
43320;DHT22;28914;48.722;9.332;2023-06-26T21:03:39;24.70;41.40
43320;DHT22;28914;48.722;9.332;2023-06-26T21:08:58;24.60;41.70
43320;DHT22;28914;48.722;9.332;2023-06-26T21:14:17;24.40;42.00
43320;DHT22;28914;48.722;9.332;2023-06-26T21:19:37;24.40;42.30
43320;DHT22;28914;48.722;9.332;2023-06-26T21:24:56;24.30;42.40
43320;DHT22;28914;48.722;9.332;2023-06-26T21:30:15;24.20;42.60
43320;DHT22;28914;48.722;9.332;2023-06-26T21:35:34;24.20;42.80
43320;DHT22;28914;48.722;9.332;2023-06-26T21:40:54;24.10;43.30
43320;DHT22;28914;48.722;9.332;2023-06-26T21:46:13;24.10;43.40
43320;DHT22;28914;48.722;9.332;2023-06-26T21:51:32;24.00;43.50
43320;DHT22;28914;48.722;9.332;2023-06-26T21:56:51;23.90;43.70
43320;DHT22;28914;48.722;9.332;2023-06-26T22:02:11;23.90;43.90
43320;DHT22;28914;48.722;9.332;2023-06-26T22:07:30;23.90;44.10
43320;DHT22;28914;48.722;9.332;2023-06-26T22:12:49;23.80;44.50
43320;DHT22;28914;48.722;9.332;2023-06-26T22:18:08;23.70;44.50
43320;DHT22;28914;48.722;9.332;2023-06-26T22:23:27;23.70;44.90
43320;DHT22;28914;48.722;9.332;2023-06-26T22:28:47;23.70;44.90
43320;DHT22;28914;48.722;9.332;2023-06-26T22:34:06;23.70;44.90
43320;DHT22;28914;48.722;9.332;2023-06-26T22:39:25;23.70;45.40
43320;DHT22;28914;48.722;9.332;2023-06-26T22:44:44;23.70;45.30
43320;DHT22;28914;48.722;9.332;2023-06-26T22:50:07;23.70;45.30
43320;DHT22;28914;48.722;9.332;2023-06-26T22:55:26;23.70;45.60
43320;DHT22;28914;48.722;9.332;2023-06-26T23:00:46;23.70;45.60
43320;DHT22;28914;48.722;9.332;2023-06-26T23:06:05;23.60;45.60
43320;DHT22;28914;48.722;9.332;2023-06-26T23:11:24;23.60;45.80
43320;DHT22;28914;48.722;9.332;2023-06-26T23:16:43;23.60;45.70
43320;DHT22;28914;48.722;9.332;2023-06-26T23:22:03;23.60;46.00
43320;DHT22;28914;48.722;9.332;2023-06-26T23:27:28;23.50;46.00
43320;DHT22;28914;48.722;9.332;2023-06-26T23:32:47;23.50;46.00
43320;DHT22;28914;48.722;9.332;2023-06-26T23:38:07;23.50;46.20
43320;DHT22;28914;48.722;9.332;2023-06-26T23:43:26;23.50;46.50
43320;DHT22;28914;48.722;9.332;2023-06-26T23:48:48;23.50;46.50
43320;DHT22;28914;48.722;9.332;2023-06-26T23:54:07;23.50;46.60
43320;DHT22;28914;48.722;9.332;2023-06-26T23:59:26;23.40;46.70
